Time;durP1;ratioP1;P1;durP2;ratioP2;P2;SDS_P1;SDS_P2;PMS_P1;PMS_P2;Temp;Humidity;BMP_temperature;BMP_pressure;BME280_temperature;BME280_humidity;BME280_pressure;Samples;Min_cycle;Max_cycle;Signal;HPM_P1;HPM_P2
2022/06/02 00:00:45;;;;;;;;;;;8.20;99.90;;;;;;5033254;28;19932;-79
2022/06/02 00:03:14;;;;;;;;;;;8.10;99.90;;;;;;5059594;28;20361;-78
2022/06/02 00:06:03;;;;;;;;;;;8.10;99.90;;;;;;5019793;28;20328;-79
2022/06/02 00:08:36;;;;;;;;;;;8.00;99.90;;;;;;5017213;28;19975;-78
2022/06/02 00:11:07;;;;;;;;;;;7.90;99.90;;;;;;5054244;28;19975;-77
2022/06/02 00:13:36;;;;;;;;;;;7.80;99.90;;;;;;5031314;28;20010;-79
2022/06/02 00:16:06;;;;;;;;;;;7.80;99.90;;;;;;5026758;28;19917;-81
2022/06/02 00:19:07;;;;;;;;;;;7.70;99.90;;;;;;5062558;28;19920;-78
2022/06/02 00:21:42;;;;;;;;;;;7.70;99.90;;;;;;4937975;29;19973;-80
2022/06/02 00:24:07;;;;;;;;;;;7.60;99.90;;;;;;5015276;28;19923;-81
2022/06/02 00:26:51;;;;;;;;;;;7.60;99.90;;;;;;5030830;28;20445;-79
2022/06/02 00:29:22;;;;;;;;;;;7.50;99.90;;;;;;5028871;28;19924;-80
2022/06/02 00:31:53;;;;;;;;;;;7.40;99.90;;;;;;5004068;28;20011;-80
2022/06/02 00:34:37;;;;;;;;;;;7.40;99.90;;;;;;5048592;28;19971;-78
2022/06/02 00:37:18;;;;;;;;;;;7.40;99.90;;;;;;5026661;28;19972;-79
2022/06/02 00:39:45;;;;;;;;;;;7.30;99.90;;;;;;5006720;28;19920;-78
2022/06/02 00:42:32;;;;;;;;;;;7.30;99.90;;;;;;5007418;28;20310;-78
2022/06/02 00:45:04;;;;;;;;;;;7.30;99.90;;;;;;5025101;28;19957;-77
2022/06/02 00:47:49;;;;;;;;;;;7.20;99.90;;;;;;5009433;28;19921;-77
2022/06/02 00:50:33;;;;;;;;;;;7.20;99.90;;;;;;5012598;28;19924;-78
2022/06/02 00:53:17;;;;;;;;;;;7.30;99.90;;;;;;5013865;28;19917;-80
2022/06/02 00:59:23;;;;;;;;;;;7.20;99.90;;;;;;5031761;28;19917;-77
2022/06/02 01:01:48;;;;;;;;;;;7.20;99.90;;;;;;4990666;28;19922;-81
2022/06/02 01:04:15;;;;;;;;;;;7.20;99.90;;;;;;5006186;28;19917;-79
2022/06/02 01:06:56;;;;;;;;;;;7.30;99.90;;;;;;5033053;28;19940;-80
2022/06/02 01:09:44;;;;;;;;;;;7.30;99.90;;;;;;5066324;28;19917;-78
2022/06/02 01:12:48;;;;;;;;;;;7.30;99.90;;;;;;5013985;28;19917;-80
2022/06/02 01:15:13;;;;;;;;;;;7.30;99.90;;;;;;4924475;28;19918;-76
2022/06/02 01:18:02;;;;;;;;;;;7.30;99.90;;;;;;4955935;28;19925;-77
2022/06/02 01:20:44;;;;;;;;;;;7.30;99.90;;;;;;4970167;28;19929;-77
2022/06/02 01:23:19;;;;;;;;;;;7.30;99.90;;;;;;5015448;28;19983;-79
2022/06/02 01:25:46;;;;;;;;;;;7.30;99.90;;;;;;5031036;28;19917;-80
2022/06/02 01:28:26;;;;;;;;;;;7.30;99.90;;;;;;5042119;28;19925;-78
2022/06/02 01:31:01;;;;;;;;;;;7.30;99.90;;;;;;5021900;28;19953;-78
2022/06/02 01:33:45;;;;;;;;;;;7.30;99.90;;;;;;5012645;28;19917;-79
2022/06/02 01:36:30;;;;;;;;;;;7.30;99.90;;;;;;5029833;28;20028;-76
2022/06/02 01:38:55;;;;;;;;;;;7.30;99.90;;;;;;5002502;28;19921;-78
2022/06/02 01:41:33;;;;;;;;;;;7.30;99.90;;;;;;5007494;28;19924;-80
2022/06/02 01:44:05;;;;;;;;;;;7.20;99.90;;;;;;5027652;28;19921;-78
2022/06/02 01:46:40;;;;;;;;;;;7.20;99.90;;;;;;5046715;28;19922;-78
2022/06/02 01:49:13;;;;;;;;;;;7.20;99.90;;;;;;5015720;28;19927;-79
2022/06/02 01:51:48;;;;;;;;;;;7.20;99.90;;;;;;4999712;28;19928;-76
2022/06/02 01:54:19;;;;;;;;;;;7.20;99.90;;;;;;5028830;28;19927;-78
2022/06/02 01:56:49;;;;;;;;;;;7.20;99.90;;;;;;5009393;28;19920;-78
2022/06/02 01:59:34;;;;;;;;;;;7.20;99.90;;;;;;5004872;28;19924;-79
2022/06/02 02:02:10;;;;;;;;;;;7.20;99.90;;;;;;5020741;28;19975;-80
2022/06/02 02:04:35;;;;;;;;;;;7.20;99.90;;;;;;5056983;28;19927;-77
2022/06/02 02:07:20;;;;;;;;;;;7.20;99.90;;;;;;5058127;28;19917;-81
2022/06/02 02:10:05;;;;;;;;;;;7.20;99.90;;;;;;5007470;28;19924;-77
2022/06/02 02:12:30;;;;;;;;;;;7.30;99.90;;;;;;5003064;28;19916;-78
2022/06/02 02:15:01;;;;;;;;;;;7.30;99.90;;;;;;5015286;28;20358;-82
2022/06/02 02:17:27;;;;;;;;;;;7.30;99.90;;;;;;5056580;28;19923;-79
2022/06/02 02:20:01;;;;;;;;;;;7.30;99.90;;;;;;5032652;28;19921;-77
2022/06/02 02:22:41;;;;;;;;;;;7.30;99.90;;;;;;5058531;28;19917;-78
2022/06/02 02:25:10;;;;;;;;;;;7.30;99.90;;;;;;5000201;28;19999;-79
2022/06/02 02:28:05;;;;;;;;;;;7.30;99.90;;;;;;5027205;28;19917;-80
2022/06/02 02:30:46;;;;;;;;;;;7.40;99.90;;;;;;4998284;28;19917;-78
2022/06/02 02:33:31;;;;;;;;;;;7.40;99.90;;;;;;5010517;28;19917;-80
2022/06/02 02:36:09;;;;;;;;;;;7.40;99.90;;;;;;5032656;28;20378;-82
2022/06/02 02:38:40;;;;;;;;;;;7.50;99.90;;;;;;5024732;28;19916;-78
2022/06/02 02:41:09;;;;;;;;;;;7.50;99.90;;;;;;5032029;28;19921;-79
2022/06/02 02:43:57;;;;;;;;;;;7.50;99.90;;;;;;5019663;28;20273;-80
2022/06/02 02:46:33;;;;;;;;;;;7.50;99.90;;;;;;5028750;28;19921;-79
2022/06/02 02:49:05;;;;;;;;;;;7.50;99.90;;;;;;5037503;28;19924;-80
2022/06/02 02:51:38;;;;;;;;;;;7.60;99.90;;;;;;4998122;28;19917;-79
2022/06/02 02:54:16;;;;;;;;;;;7.60;99.90;;;;;;5020897;28;19995;-76
2022/06/02 02:56:53;;;;;;;;;;;7.60;99.90;;;;;;5045237;28;19921;-78
2022/06/02 02:59:22;;;;;;;;;;;7.60;99.90;;;;;;5024396;28;19921;-78
2022/06/02 03:02:02;;;;;;;;;;;7.60;99.90;;;;;;5026570;28;19923;-79
2022/06/02 03:04:38;;;;;;;;;;;7.50;99.90;;;;;;5058001;28;20377;-79
2022/06/02 03:07:04;;;;;;;;;;;7.50;99.90;;;;;;5042347;28;20264;-79
2022/06/02 03:09:29;;;;;;;;;;;7.50;99.90;;;;;;5061133;28;19916;-79
2022/06/02 03:12:04;;;;;;;;;;;7.60;99.90;;;;;;5034097;28;20318;-81
2022/06/02 03:14:48;;;;;;;;;;;7.60;99.90;;;;;;5061160;28;19982;-79
2022/06/02 03:17:28;;;;;;;;;;;7.70;99.90;;;;;;5028705;28;20062;-79
2022/06/02 03:19:54;;;;;;;;;;;7.70;99.90;;;;;;5007911;28;19921;-81
2022/06/02 03:22:19;;;;;;;;;;;7.80;99.90;;;;;;5037497;28;20392;-81
2022/06/02 03:24:54;;;;;;;;;;;7.80;99.90;;;;;;5024360;28;20286;-79
2022/06/02 03:27:37;;;;;;;;;;;7.70;99.90;;;;;;5027604;28;20019;-78
2022/06/02 03:30:18;;;;;;;;;;;7.70;99.90;;;;;;5038179;28;20063;-79
2022/06/02 03:32:51;;;;;;;;;;;7.70;99.90;;;;;;5050687;28;20002;-76
2022/06/02 03:35:24;;;;;;;;;;;7.80;99.90;;;;;;5020492;28;19917;-80
2022/06/02 03:38:02;;;;;;;;;;;7.80;99.90;;;;;;5055402;28;19923;-81
2022/06/02 03:40:47;;;;;;;;;;;7.80;99.90;;;;;;5036566;28;19924;-80
2022/06/02 03:43:14;;;;;;;;;;;7.90;99.90;;;;;;5032087;28;20366;-78
2022/06/02 03:45:59;;;;;;;;;;;8.00;99.90;;;;;;5033364;28;19921;-80
2022/06/02 03:48:24;;;;;;;;;;;8.00;99.90;;;;;;5023127;28;19918;-80
2022/06/02 03:51:09;;;;;;;;;;;8.10;99.90;;;;;;5035541;28;19917;-78
2022/06/02 03:53:37;;;;;;;;;;;8.00;99.90;;;;;;5013394;28;20286;-78
2022/06/02 03:56:06;;;;;;;;;;;8.10;99.90;;;;;;5026192;28;19952;-79
2022/06/02 03:58:39;;;;;;;;;;;8.20;99.90;;;;;;5026200;28;19987;-81
2022/06/02 04:01:06;;;;;;;;;;;8.30;99.90;;;;;;5036546;28;19925;-77
2022/06/02 04:03:31;;;;;;;;;;;8.30;99.90;;;;;;5033274;28;19920;-76
2022/06/02 04:06:06;;;;;;;;;;;8.30;99.90;;;;;;5026945;28;19954;-79
2022/06/02 04:08:33;;;;;;;;;;;8.40;99.90;;;;;;5014438;28;19995;-82
2022/06/02 04:11:17;;;;;;;;;;;8.30;99.90;;;;;;5058818;28;19917;-78
2022/06/02 04:13:46;;;;;;;;;;;8.40;99.90;;;;;;5026131;28;19970;-79
2022/06/02 04:16:39;;;;;;;;;;;8.40;99.90;;;;;;5024327;28;19916;-78
2022/06/02 04:20:34;;;;;;;;;;;8.50;99.90;;;;;;5026225;28;19922;-80
2022/06/02 04:21:59;;;;;;;;;;;8.50;99.90;;;;;;5044767;28;20272;-81
2022/06/02 04:24:43;;;;;;;;;;;8.60;99.90;;;;;;5014800;28;20566;-77
2022/06/02 04:27:15;;;;;;;;;;;8.70;99.90;;;;;;5045457;28;19921;-80
2022/06/02 04:30:00;;;;;;;;;;;8.80;99.90;;;;;;5019695;28;19927;-82
2022/06/02 04:32:29;;;;;;;;;;;8.80;99.90;;;;;;5020532;28;19917;-79
2022/06/02 04:34:55;;;;;;;;;;;8.90;99.90;;;;;;5025526;28;19924;-79
2022/06/02 04:37:35;;;;;;;;;;;9.00;99.90;;;;;;5026014;28;19932;-81
2022/06/02 04:40:20;;;;;;;;;;;9.10;99.90;;;;;;5025286;28;19922;-77
2022/06/02 04:42:50;;;;;;;;;;;9.20;99.90;;;;;;5018425;28;20007;-78
2022/06/02 04:45:36;;;;;;;;;;;9.20;99.90;;;;;;5036219;28;19967;-81
2022/06/02 04:48:08;;;;;;;;;;;9.30;99.90;;;;;;4993828;28;19921;-80
2022/06/02 04:50:38;;;;;;;;;;;9.40;99.90;;;;;;4999065;28;19918;-79
2022/06/02 04:53:27;;;;;;;;;;;9.40;99.90;;;;;;5019285;28;19917;-80
2022/06/02 04:56:12;;;;;;;;;;;9.50;99.90;;;;;;4975693;28;19917;-80
2022/06/02 04:58:48;;;;;;;;;;;9.50;99.90;;;;;;5019836;28;19917;-77
2022/06/02 05:01:34;;;;;;;;;;;9.60;99.90;;;;;;5016593;28;19925;-78
2022/06/02 05:04:09;;;;;;;;;;;9.70;99.90;;;;;;4961699;28;19917;-79
2022/06/02 05:06:37;;;;;;;;;;;9.80;99.90;;;;;;5053089;28;19944;-81
2022/06/02 05:09:03;;;;;;;;;;;9.90;99.90;;;;;;5017983;28;20034;-78
2022/06/02 05:11:29;;;;;;;;;;;9.90;99.90;;;;;;5019814;28;19917;-78
2022/06/02 05:14:13;;;;;;;;;;;10.10;99.90;;;;;;5012646;28;19961;-80
2022/06/02 05:16:48;;;;;;;;;;;10.10;99.90;;;;;;5012333;28;20052;-80
2022/06/02 05:19:29;;;;;;;;;;;10.10;99.90;;;;;;5011408;28;20290;-78
2022/06/02 05:22:14;;;;;;;;;;;10.20;99.90;;;;;;5017666;28;20332;-79
2022/06/02 05:24:58;;;;;;;;;;;10.20;99.90;;;;;;5001730;28;19939;-79
2022/06/02 05:27:29;;;;;;;;;;;10.30;99.90;;;;;;4995628;28;19918;-78
2022/06/02 05:29:58;;;;;;;;;;;10.40;99.90;;;;;;5029714;28;20003;-81
2022/06/02 05:32:36;;;;;;;;;;;10.50;99.90;;;;;;5065579;28;19924;-79
2022/06/02 05:35:20;;;;;;;;;;;10.60;99.90;;;;;;5032983;28;19917;-79
2022/06/02 05:38:03;;;;;;;;;;;10.70;99.90;;;;;;5030098;28;20450;-79
2022/06/02 05:40:34;;;;;;;;;;;10.80;99.90;;;;;;5023344;28;20003;-78
2022/06/02 05:43:07;;;;;;;;;;;10.90;99.90;;;;;;5025179;28;19980;-77
2022/06/02 05:45:42;;;;;;;;;;;10.90;99.90;;;;;;5009627;28;19928;-80
2022/06/02 05:48:23;;;;;;;;;;;11.00;99.90;;;;;;5011000;28;19975;-78
2022/06/02 05:50:57;;;;;;;;;;;11.10;99.90;;;;;;5027593;28;19959;-80
2022/06/02 05:53:49;;;;;;;;;;;11.10;99.90;;;;;;5011517;28;19917;-79
2022/06/02 05:56:22;;;;;;;;;;;11.20;99.90;;;;;;5004395;28;19917;-78
2022/06/02 05:59:07;;;;;;;;;;;11.30;99.90;;;;;;5011458;28;20521;-81
2022/06/02 06:01:47;;;;;;;;;;;11.30;99.90;;;;;;5021217;28;19960;-79
2022/06/02 06:04:39;;;;;;;;;;;11.40;99.90;;;;;;5018141;28;20322;-80
2022/06/02 06:07:19;;;;;;;;;;;11.50;99.90;;;;;;5019008;28;19924;-78
2022/06/02 06:09:54;;;;;;;;;;;11.60;99.90;;;;;;5039587;28;19921;-78
2022/06/02 06:12:29;;;;;;;;;;;11.70;99.90;;;;;;5022220;28;19921;-78
2022/06/02 06:14:54;;;;;;;;;;;11.80;99.90;;;;;;5030916;28;20428;-79
2022/06/02 06:17:39;;;;;;;;;;;11.80;99.90;;;;;;5018866;28;19921;-77
2022/06/02 06:20:08;;;;;;;;;;;12.00;99.90;;;;;;5001778;28;19928;-79
2022/06/02 06:22:52;;;;;;;;;;;12.00;99.90;;;;;;5024962;28;19917;-78
2022/06/02 06:25:31;;;;;;;;;;;12.10;99.90;;;;;;5055148;28;19925;-78
2022/06/02 06:28:12;;;;;;;;;;;12.10;99.90;;;;;;5019937;28;20047;-80
2022/06/02 06:30:37;;;;;;;;;;;12.20;99.90;;;;;;5048240;28;19917;-79
2022/06/02 06:33:30;;;;;;;;;;;12.30;99.90;;;;;;5014970;28;19971;-77
2022/06/02 06:36:14;;;;;;;;;;;12.40;99.90;;;;;;5025714;28;20273;-80
2022/06/02 06:38:59;;;;;;;;;;;12.50;99.90;;;;;;5017548;28;19928;-80
2022/06/02 06:41:31;;;;;;;;;;;12.60;99.90;;;;;;5033606;28;20389;-78
2022/06/02 06:44:06;;;;;;;;;;;12.60;99.90;;;;;;5050484;28;20247;-81
2022/06/02 06:46:56;;;;;;;;;;;12.70;99.90;;;;;;5021677;28;19976;-80
2022/06/02 06:49:41;;;;;;;;;;;12.90;99.90;;;;;;4989250;28;19944;-81
2022/06/02 06:52:21;;;;;;;;;;;13.00;99.90;;;;;;5015309;28;19924;-78
2022/06/02 06:55:00;;;;;;;;;;;13.20;99.90;;;;;;5014704;28;20005;-79
2022/06/02 06:57:28;;;;;;;;;;;13.50;99.90;;;;;;5015241;28;19922;-78
2022/06/02 07:00:06;;;;;;;;;;;13.70;99.90;;;;;;5013855;28;19987;-81
2022/06/02 07:02:32;;;;;;;;;;;13.70;99.90;;;;;;4997510;28;19926;-80
2022/06/02 07:05:09;;;;;;;;;;;13.90;99.90;;;;;;4997655;28;19929;-80
2022/06/02 07:07:53;;;;;;;;;;;13.90;99.90;;;;;;5047139;28;19960;-78
2022/06/02 07:10:35;;;;;;;;;;;14.00;99.90;;;;;;5014796;28;19921;-80
2022/06/02 07:13:06;;;;;;;;;;;13.90;99.90;;;;;;5006685;28;20409;-80
2022/06/02 07:15:33;;;;;;;;;;;13.90;99.90;;;;;;5014111;28;19984;-78
2022/06/02 07:17:58;;;;;;;;;;;14.00;99.90;;;;;;5013501;28;19936;-80
2022/06/02 07:20:29;;;;;;;;;;;14.00;99.90;;;;;;5013705;28;20325;-79
2022/06/02 07:23:07;;;;;;;;;;;14.00;99.90;;;;;;5047139;28;19972;-78
2022/06/02 07:25:51;;;;;;;;;;;14.00;99.90;;;;;;5022148;28;20408;-80
2022/06/02 07:28:35;;;;;;;;;;;14.00;99.90;;;;;;5017766;28;19917;-77
2022/06/02 07:31:07;;;;;;;;;;;14.00;99.90;;;;;;5016731;28;20366;-80
2022/06/02 07:33:39;;;;;;;;;;;14.00;99.90;;;;;;4996375;28;19924;-78
2022/06/02 07:36:15;;;;;;;;;;;14.10;99.90;;;;;;5015249;28;20386;-78
2022/06/02 07:39:06;;;;;;;;;;;14.10;99.90;;;;;;5046455;28;19972;-79
2022/06/02 07:41:41;;;;;;;;;;;14.20;99.90;;;;;;5046875;28;19974;-80
2022/06/02 07:44:06;;;;;;;;;;;14.20;99.90;;;;;;5015289;28;19921;-79
2022/06/02 07:46:55;;;;;;;;;;;14.30;99.90;;;;;;5008087;28;20448;-76
2022/06/02 07:49:27;;;;;;;;;;;14.50;99.90;;;;;;5013081;28;19921;-80
2022/06/02 07:51:56;;;;;;;;;;;14.60;99.90;;;;;;5040052;28;19918;-82
2022/06/02 07:54:31;;;;;;;;;;;14.60;99.90;;;;;;5032041;28;19951;-78
2022/06/02 07:57:09;;;;;;;;;;;14.60;99.90;;;;;;5013330;28;19917;-81
2022/06/02 07:59:54;;;;;;;;;;;14.70;99.90;;;;;;5045671;28;19929;-79
2022/06/02 08:02:31;;;;;;;;;;;14.80;99.90;;;;;;5029707;28;19917;-77
2022/06/02 08:04:58;;;;;;;;;;;14.90;99.90;;;;;;5045561;28;19917;-79
2022/06/02 08:07:36;;;;;;;;;;;15.20;99.90;;;;;;5013232;28;19964;-78
2022/06/02 08:10:03;;;;;;;;;;;15.30;99.90;;;;;;5013403;28;20285;-77
2022/06/02 08:12:43;;;;;;;;;;;15.30;99.90;;;;;;4996446;28;19972;-79
2022/06/02 08:15:29;;;;;;;;;;;15.30;99.90;;;;;;5047678;28;20000;-79
2022/06/02 08:18:00;;;;;;;;;;;15.50;99.90;;;;;;4998111;28;19918;-77
2022/06/02 08:20:26;;;;;;;;;;;15.70;99.90;;;;;;5013863;28;19921;-78
2022/06/02 08:22:55;;;;;;;;;;;15.70;99.90;;;;;;4996803;28;20417;-79
2022/06/02 08:25:23;;;;;;;;;;;15.60;99.90;;;;;;5012336;28;19971;-80
2022/06/02 08:27:59;;;;;;;;;;;15.40;99.90;;;;;;4999411;28;19921;-80
2022/06/02 08:30:25;;;;;;;;;;;15.40;99.90;;;;;;5016015;28;19921;-78
2022/06/02 08:33:10;;;;;;;;;;;15.40;99.90;;;;;;4996079;28;19924;-78
2022/06/02 08:35:54;;;;;;;;;;;15.40;99.90;;;;;;5012021;28;19928;-77
2022/06/02 08:38:43;;;;;;;;;;;15.40;99.90;;;;;;5046127;28;19923;-79
2022/06/02 08:41:31;;;;;;;;;;;15.50;99.90;;;;;;5013503;28;19928;-80
2022/06/02 08:44:15;;;;;;;;;;;15.40;99.90;;;;;;5012393;28;19921;-78
2022/06/02 08:46:44;;;;;;;;;;;15.30;99.90;;;;;;5027660;28;19929;-76
2022/06/02 08:49:10;;;;;;;;;;;15.30;99.90;;;;;;5008728;28;19941;-79
2022/06/02 08:51:35;;;;;;;;;;;15.40;99.90;;;;;;5011949;28;20363;-78
2022/06/02 08:54:01;;;;;;;;;;;15.40;99.90;;;;;;4995323;28;20361;-82
2022/06/02 08:56:50;;;;;;;;;;;15.50;99.90;;;;;;4995868;28;19987;-79
2022/06/02 08:59:31;;;;;;;;;;;15.60;99.90;;;;;;5044973;28;20259;-77
2022/06/02 09:02:15;;;;;;;;;;;15.70;99.90;;;;;;5031269;28;20363;-80
2022/06/02 09:04:47;;;;;;;;;;;15.80;99.90;;;;;;5027773;28;20077;-80
2022/06/02 09:07:34;;;;;;;;;;;15.90;99.90;;;;;;5014166;28;19925;-80
2022/06/02 09:10:12;;;;;;;;;;;16.10;99.90;;;;;;5028396;28;20067;-78
2022/06/02 09:12:44;;;;;;;;;;;16.20;99.90;;;;;;4995151;28;19921;-78
2022/06/02 09:15:16;;;;;;;;;;;16.30;99.90;;;;;;5013252;28;19934;-78
2022/06/02 09:17:46;;;;;;;;;;;16.40;99.90;;;;;;5044133;28;19924;-80
2022/06/02 09:20:14;;;;;;;;;;;16.50;99.90;;;;;;5044698;28;19928;-77
2022/06/02 09:22:51;;;;;;;;;;;16.70;99.90;;;;;;5028350;28;20004;-79
2022/06/02 09:25:21;;;;;;;;;;;16.80;99.90;;;;;;5013497;28;20012;-80
2022/06/02 09:27:50;;;;;;;;;;;16.60;99.90;;;;;;5011608;28;19925;-79
2022/06/02 09:30:18;;;;;;;;;;;16.40;99.90;;;;;;5011848;28;19917;-78
2022/06/02 09:32:47;;;;;;;;;;;16.50;99.90;;;;;;5010710;28;19924;-76
2022/06/02 09:35:19;;;;;;;;;;;16.50;99.90;;;;;;5011991;28;19918;-79
2022/06/02 09:38:03;;;;;;;;;;;16.60;99.90;;;;;;5011404;28;20302;-80
2022/06/02 09:40:45;;;;;;;;;;;17.00;99.90;;;;;;4995469;28;19921;-81
2022/06/02 09:43:13;;;;;;;;;;;17.40;99.90;;;;;;5000168;28;19990;-79
2022/06/02 09:45:42;;;;;;;;;;;17.50;99.90;;;;;;5022994;28;19996;-78
2022/06/02 09:48:27;;;;;;;;;;;17.50;99.90;;;;;;4994359;28;19921;-80
2022/06/02 09:51:11;;;;;;;;;;;17.50;99.90;;;;;;5041131;28;19927;-80
2022/06/02 09:54:12;;;;;;;;;;;17.20;99.90;;;;;;5015927;28;20028;-78
2022/06/02 09:56:50;;;;;;;;;;;17.10;99.90;;;;;;4929557;29;19918;-78
2022/06/02 09:59:17;;;;;;;;;;;17.00;99.90;;;;;;5005905;28;20009;-78
2022/06/02 10:01:53;;;;;;;;;;;16.90;99.90;;;;;;5026687;28;19924;-78
2022/06/02 10:04:37;;;;;;;;;;;16.90;99.90;;;;;;5014576;28;20394;-76
2022/06/02 10:07:21;;;;;;;;;;;17.10;99.90;;;;;;5012571;28;20032;-80
2022/06/02 10:09:56;;;;;;;;;;;17.20;99.90;;;;;;5015204;28;19967;-80
2022/06/02 10:12:57;;;;;;;;;;;17.10;99.90;;;;;;5048402;28;19967;-80
2022/06/02 10:15:32;;;;;;;;;;;17.00;99.90;;;;;;5044382;28;20397;-77
2022/06/02 10:18:04;;;;;;;;;;;17.20;99.90;;;;;;5011211;28;20045;-80
2022/06/02 10:20:48;;;;;;;;;;;17.40;99.90;;;;;;4985894;28;20513;-78
2022/06/02 10:23:33;;;;;;;;;;;17.30;99.90;;;;;;5019995;28;19940;-80
2022/06/02 10:26:04;;;;;;;;;;;17.30;99.90;;;;;;5031239;28;19921;-81
2022/06/02 10:28:39;;;;;;;;;;;17.30;99.90;;;;;;5031396;28;19921;-77
2022/06/02 10:31:22;;;;;;;;;;;17.60;99.90;;;;;;5015039;28;20378;-80
2022/06/02 10:34:05;;;;;;;;;;;17.80;99.90;;;;;;5048469;28;19975;-80
2022/06/02 10:36:35;;;;;;;;;;;17.80;99.90;;;;;;5043543;28;20426;-81
2022/06/02 10:39:19;;;;;;;;;;;17.60;99.90;;;;;;5011328;28;19921;-78
2022/06/02 10:41:54;;;;;;;;;;;17.60;99.90;;;;;;5021067;28;19921;-80
2022/06/02 10:44:29;;;;;;;;;;;17.60;99.90;;;;;;5015031;28;19917;-79
2022/06/02 10:46:59;;;;;;;;;;;17.60;99.90;;;;;;5025816;28;20017;-78
2022/06/02 10:49:26;;;;;;;;;;;17.60;99.90;;;;;;5038182;28;19977;-78
2022/06/02 10:52:12;;;;;;;;;;;17.70;99.90;;;;;;5007987;28;20394;-79
2022/06/02 10:54:50;;;;;;;;;;;17.70;99.90;;;;;;4997599;28;19917;-79
2022/06/02 10:57:16;;;;;;;;;;;17.90;99.90;;;;;;5028915;28;19917;-79
2022/06/02 11:00:02;;;;;;;;;;;18.00;99.90;;;;;;5050297;28;19936;-79
2022/06/02 11:02:28;;;;;;;;;;;17.90;99.90;;;;;;5046068;28;19924;-78
2022/06/02 11:04:56;;;;;;;;;;;17.80;99.90;;;;;;5023813;28;19936;-79
2022/06/02 11:07:25;;;;;;;;;;;17.60;99.90;;;;;;5005014;28;20255;-76
2022/06/02 11:10:11;;;;;;;;;;;17.50;99.90;;;;;;5021932;28;19921;-78
2022/06/02 11:12:55;;;;;;;;;;;17.80;99.90;;;;;;5006308;28;19916;-79
2022/06/02 11:15:31;;;;;;;;;;;18.10;99.90;;;;;;5017242;28;20428;-79
2022/06/02 11:18:10;;;;;;;;;;;18.10;99.90;;;;;;5054626;28;19921;-78
2022/06/02 11:20:45;;;;;;;;;;;18.20;99.90;;;;;;4997679;28;19937;-78
2022/06/02 11:23:11;;;;;;;;;;;18.10;99.90;;;;;;5029866;28;19917;-77
2022/06/02 11:25:46;;;;;;;;;;;18.00;99.90;;;;;;5056409;28;19918;-81
2022/06/02 11:28:11;;;;;;;;;;;17.90;99.90;;;;;;4997809;28;19917;-79
2022/06/02 11:30:37;;;;;;;;;;;18.10;99.90;;;;;;5024292;28;19924;-77
2022/06/02 11:33:26;;;;;;;;;;;18.30;99.90;;;;;;5032145;28;19921;-79
2022/06/02 11:36:10;;;;;;;;;;;18.40;99.90;;;;;;5009449;28;20259;-77
2022/06/02 11:38:54;;;;;;;;;;;18.20;99.90;;;;;;5024250;28;19921;-80
2022/06/02 11:41:46;;;;;;;;;;;18.10;99.90;;;;;;5013709;28;19921;-79
2022/06/02 11:44:20;;;;;;;;;;;18.20;99.90;;;;;;4987554;28;19925;-79
2022/06/02 11:46:49;;;;;;;;;;;18.50;99.90;;;;;;5006047;28;20000;-81
2022/06/02 11:49:18;;;;;;;;;;;18.70;99.90;;;;;;5026076;28;19917;-79
2022/06/02 11:52:13;;;;;;;;;;;18.80;99.90;;;;;;5029992;28;19917;-79
2022/06/02 11:54:48;;;;;;;;;;;18.80;99.90;;;;;;5021660;28;19927;-77
2022/06/02 11:57:43;;;;;;;;;;;18.70;99.90;;;;;;5027142;28;19991;-79
2022/06/02 12:00:30;;;;;;;;;;;18.70;99.90;;;;;;5008948;28;20385;-79
2022/06/02 12:03:02;;;;;;;;;;;18.80;99.90;;;;;;5009971;28;20005;-78
2022/06/02 12:05:53;;;;;;;;;;;18.90;99.90;;;;;;5049756;28;20490;-80
2022/06/02 12:08:37;;;;;;;;;;;18.90;99.90;;;;;;5033067;28;20389;-79
2022/06/02 12:11:19;;;;;;;;;;;18.90;99.90;;;;;;5025364;28;19971;-81
2022/06/02 12:14:03;;;;;;;;;;;18.90;99.90;;;;;;5012375;28;19918;-78
2022/06/02 12:16:52;;;;;;;;;;;18.90;99.90;;;;;;4995433;28;19917;-78
2022/06/02 12:19:25;;;;;;;;;;;18.80;99.90;;;;;;4996007;28;19925;-79
2022/06/02 12:21:58;;;;;;;;;;;18.70;99.90;;;;;;5018079;28;19917;-79
2022/06/02 12:24:31;;;;;;;;;;;18.90;99.90;;;;;;5020103;28;19924;-78
2022/06/02 12:27:03;;;;;;;;;;;19.00;99.90;;;;;;4991440;28;20216;-78
2022/06/02 12:29:48;;;;;;;;;;;19.20;99.90;;;;;;5020166;28;19996;-79
2022/06/02 12:32:19;;;;;;;;;;;19.30;99.90;;;;;;5005883;28;20342;-77
2022/06/02 12:34:51;;;;;;;;;;;19.50;99.90;;;;;;5016257;28;19928;-77
2022/06/02 12:37:37;;;;;;;;;;;19.40;99.90;;;;;;5037165;28;19921;-78
2022/06/02 12:40:15;;;;;;;;;;;19.50;99.90;;;;;;4993072;28;19925;-80
2022/06/02 12:42:40;;;;;;;;;;;19.60;99.90;;;;;;5019058;28;20417;-77
2022/06/02 12:45:25;;;;;;;;;;;19.60;99.90;;;;;;5025086;28;19995;-77
2022/06/02 12:47:53;;;;;;;;;;;19.60;99.90;;;;;;5011249;28;19924;-80
2022/06/02 12:50:38;;;;;;;;;;;19.70;99.90;;;;;;5012199;28;19917;-79
2022/06/02 12:53:10;;;;;;;;;;;19.90;99.90;;;;;;5032476;28;19917;-78
2022/06/02 12:55:35;;;;;;;;;;;20.10;99.90;;;;;;5013746;28;19917;-80
2022/06/02 12:58:01;;;;;;;;;;;20.30;99.90;;;;;;5040613;28;19958;-80
2022/06/02 13:00:33;;;;;;;;;;;20.30;99.90;;;;;;5011831;28;20008;-81
2022/06/02 13:03:37;;;;;;;;;;;20.50;99.90;;;;;;5021798;28;19960;-80
2022/06/02 13:06:35;;;;;;;;;;;20.70;99.90;;;;;;4977027;28;19918;-78
2022/06/02 13:09:27;;;;;;;;;;;20.90;99.90;;;;;;4929583;28;20012;-81
2022/06/02 13:12:11;;;;;;;;;;;20.80;99.90;;;;;;4975613;28;19917;-77
2022/06/02 13:15:05;;;;;;;;;;;20.80;99.50;;;;;;5012216;28;19917;-80
2022/06/02 13:17:49;;;;;;;;;;;21.00;99.90;;;;;;4996083;28;20391;-80
2022/06/02 13:20:18;;;;;;;;;;;21.20;99.90;;;;;;5045019;28;19921;-77
2022/06/02 13:22:43;;;;;;;;;;;21.30;99.90;;;;;;5020306;28;19963;-81
2022/06/02 13:25:28;;;;;;;;;;;21.40;99.90;;;;;;5011364;28;19917;-76
2022/06/02 13:28:06;;;;;;;;;;;21.30;99.90;;;;;;5010884;28;19924;-79
2022/06/02 13:30:49;;;;;;;;;;;21.10;99.70;;;;;;5012644;28;20384;-81
2022/06/02 13:33:25;;;;;;;;;;;21.10;99.90;;;;;;4994782;28;19925;-82
2022/06/02 13:36:10;;;;;;;;;;;21.20;99.90;;;;;;5024946;28;20427;-78
2022/06/02 13:38:51;;;;;;;;;;;21.20;97.40;;;;;;5012306;28;19917;-78
2022/06/02 13:41:32;;;;;;;;;;;21.50;97.30;;;;;;5011643;28;19968;-79
2022/06/02 13:44:16;;;;;;;;;;;21.80;99.90;;;;;;5011805;28;19933;-79
2022/06/02 13:47:15;;;;;;;;;;;22.10;98.80;;;;;;5022196;28;19921;-78
2022/06/02 13:50:00;;;;;;;;;;;22.30;99.30;;;;;;4973439;28;19972;-78
2022/06/02 13:52:37;;;;;;;;;;;22.30;99.20;;;;;;5033877;28;19922;-79
2022/06/02 13:58:03;;;;;;;;;;;22.40;98.40;;;;;;5011234;28;19917;-80
2022/06/02 14:00:28;;;;;;;;;;;22.40;98.50;;;;;;4995070;28;19925;-79
2022/06/02 14:03:00;;;;;;;;;;;22.50;95.40;;;;;;4994126;28;19964;-80
2022/06/02 14:05:25;;;;;;;;;;;22.60;95.50;;;;;;5000402;28;20378;-79
2022/06/02 14:08:15;;;;;;;;;;;22.60;93.20;;;;;;5020426;28;19917;-78
2022/06/02 14:10:48;;;;;;;;;;;22.70;93.20;;;;;;5012939;28;19956;-82
2022/06/02 14:13:17;;;;;;;;;;;22.50;93.90;;;;;;5045618;28;19917;-81
2022/06/02 14:15:53;;;;;;;;;;;22.80;96.50;;;;;;5012903;28;19917;-80
2022/06/02 14:18:34;;;;;;;;;;;23.10;93.90;;;;;;5032223;28;20401;-80
2022/06/02 14:21:11;;;;;;;;;;;23.20;93.60;;;;;;5027567;28;19921;-78
2022/06/02 14:23:49;;;;;;;;;;;23.30;88.60;;;;;;4995111;28;19956;-81
2022/06/02 14:26:23;;;;;;;;;;;23.30;88.20;;;;;;5044719;28;20005;-79
2022/06/02 14:28:58;;;;;;;;;;;23.50;91.50;;;;;;4995084;28;19964;-79
2022/06/02 14:31:27;;;;;;;;;;;23.50;88.80;;;;;;5012518;28;19917;-78
2022/06/02 14:34:04;;;;;;;;;;;23.60;86.90;;;;;;5010833;28;19918;-78
2022/06/02 14:36:35;;;;;;;;;;;23.70;89.00;;;;;;5012438;28;19921;-82
2022/06/02 14:39:19;;;;;;;;;;;23.70;89.00;;;;;;4979658;28;20302;-79
2022/06/02 14:42:02;;;;;;;;;;;23.50;85.60;;;;;;5031224;28;19977;-79
2022/06/02 14:44:33;;;;;;;;;;;23.60;83.10;;;;;;5002647;28;19974;-79
2022/06/02 14:47:03;;;;;;;;;;;23.60;77.70;;;;;;5022047;28;19933;-80
2022/06/02 14:49:50;;;;;;;;;;;23.60;80.00;;;;;;5014740;28;19928;-77
2022/06/02 14:52:15;;;;;;;;;;;23.70;81.70;;;;;;5047885;28;19918;-80
2022/06/02 14:55:01;;;;;;;;;;;23.90;77.60;;;;;;5047586;28;20015;-81
2022/06/02 14:57:30;;;;;;;;;;;23.70;74.20;;;;;;4991244;28;19967;-77
2022/06/02 14:59:55;;;;;;;;;;;23.90;77.90;;;;;;4997569;28;19972;-80
2022/06/02 15:02:40;;;;;;;;;;;24.10;75.90;;;;;;5014992;28;19918;-79
2022/06/02 15:05:05;;;;;;;;;;;24.50;78.90;;;;;;5046941;28;19922;-79
2022/06/02 15:07:51;;;;;;;;;;;24.90;70.50;;;;;;5015081;28;19921;-77
2022/06/02 15:10:35;;;;;;;;;;;24.90;76.80;;;;;;5018220;28;20000;-77
2022/06/02 15:13:02;;;;;;;;;;;25.10;74.40;;;;;;5006433;28;20278;-80
2022/06/02 15:15:38;;;;;;;;;;;25.10;69.80;;;;;;5014856;28;20444;-80
2022/06/02 15:18:04;;;;;;;;;;;24.90;68.40;;;;;;5030027;28;20460;-78
2022/06/02 15:20:53;;;;;;;;;;;24.60;68.40;;;;;;5014225;28;19921;-77
2022/06/02 15:23:24;;;;;;;;;;;24.60;67.10;;;;;;4995458;28;19921;-78